sensor_id;sensor_type;location;lat;lon;timestamp;P1;durP1;ratioP1;P2;durP2;ratioP2
75634;SDS011;64227;48.724;9.104;2023-07-20T00:02:03;1.83;;;1.40;;
75634;SDS011;64227;48.724;9.104;2023-07-20T00:04:30;2.55;;;1.45;;
75634;SDS011;64227;48.724;9.104;2023-07-20T00:06:55;2.10;;;1.30;;
75634;SDS011;64227;48.724;9.104;2023-07-20T00:09:21;2.25;;;1.30;;
75634;SDS011;64227;48.724;9.104;2023-07-20T00:11:49;1.65;;;1.00;;
75634;SDS011;64227;48.724;9.104;2023-07-20T00:14:15;1.73;;;1.10;;
75634;SDS011;64227;48.724;9.104;2023-07-20T00:16:41;2.10;;;1.17;;
75634;SDS011;64227;48.724;9.104;2023-07-20T00:19:06;1.70;;;1.40;;
75634;SDS011;64227;48.724;9.104;2023-07-20T00:21:33;2.05;;;1.23;;
75634;SDS011;64227;48.724;9.104;2023-07-20T00:23:58;1.17;;;1.08;;
75634;SDS011;64227;48.724;9.104;2023-07-20T00:26:23;4.53;;;1.30;;
75634;SDS011;64227;48.724;9.104;2023-07-20T00:28:49;3.13;;;1.05;;
75634;SDS011;64227;48.724;9.104;2023-07-20T00:31:15;1.90;;;1.48;;
75634;SDS011;64227;48.724;9.104;2023-07-20T00:33:40;1.83;;;1.42;;
75634;SDS011;64227;48.724;9.104;2023-07-20T00:36:06;2.08;;;1.38;;
75634;SDS011;64227;48.724;9.104;2023-07-20T00:38:31;2.13;;;1.02;;
75634;SDS011;64227;48.724;9.104;2023-07-20T00:40:56;1.20;;;1.08;;
75634;SDS011;64227;48.724;9.104;2023-07-20T00:43:22;2.42;;;1.40;;
75634;SDS011;64227;48.724;9.104;2023-07-20T00:45:47;2.58;;;1.35;;
75634;SDS011;64227;48.724;9.104;2023-07-20T00:48:13;2.10;;;1.27;;
75634;SDS011;64227;48.724;9.104;2023-07-20T00:50:39;2.25;;;1.05;;
75634;SDS011;64227;48.724;9.104;2023-07-20T00:53:05;2.30;;;1.30;;
75634;SDS011;64227;48.724;9.104;2023-07-20T00:55:30;3.25;;;1.35;;
75634;SDS011;64227;48.724;9.104;2023-07-20T00:57:56;3.50;;;1.30;;
75634;SDS011;64227;48.724;9.104;2023-07-20T01:00:22;1.20;;;1.10;;
75634;SDS011;64227;48.724;9.104;2023-07-20T01:02:48;1.88;;;1.27;;
75634;SDS011;64227;48.724;9.104;2023-07-20T01:05:13;1.63;;;1.20;;
75634;SDS011;64227;48.724;9.104;2023-07-20T01:13:02;1.75;;;1.30;;
75634;SDS011;64227;48.724;9.104;2023-07-20T01:18:24;2.35;;;1.40;;
75634;SDS011;64227;48.724;9.104;2023-07-20T01:21:09;1.48;;;1.00;;
75634;SDS011;64227;48.724;9.104;2023-07-20T01:32:20;1.90;;;1.23;;
75634;SDS011;64227;48.724;9.104;2023-07-20T01:34:48;0.82;;;0.82;;
75634;SDS011;64227;48.724;9.104;2023-07-20T01:37:17;3.50;;;1.30;;
75634;SDS011;64227;48.724;9.104;2023-07-20T01:39:45;3.20;;;1.10;;
75634;SDS011;64227;48.724;9.104;2023-07-20T01:42:10;1.73;;;1.17;;
75634;SDS011;64227;48.724;9.104;2023-07-20T01:44:37;1.98;;;1.10;;
75634;SDS011;64227;48.724;9.104;2023-07-20T01:47:02;2.10;;;1.25;;
75634;SDS011;64227;48.724;9.104;2023-07-20T01:49:28;3.17;;;1.70;;
75634;SDS011;64227;48.724;9.104;2023-07-20T01:51:53;2.50;;;1.23;;
75634;SDS011;64227;48.724;9.104;2023-07-20T01:54:18;2.35;;;1.20;;
75634;SDS011;64227;48.724;9.104;2023-07-20T01:56:43;1.83;;;1.33;;
75634;SDS011;64227;48.724;9.104;2023-07-20T01:59:09;1.92;;;1.40;;
75634;SDS011;64227;48.724;9.104;2023-07-20T02:01:34;2.20;;;1.23;;
75634;SDS011;64227;48.724;9.104;2023-07-20T02:03:59;1.98;;;1.20;;
75634;SDS011;64227;48.724;9.104;2023-07-20T02:06:25;1.60;;;1.17;;
75634;SDS011;64227;48.724;9.104;2023-07-20T02:08:50;2.83;;;1.30;;
75634;SDS011;64227;48.724;9.104;2023-07-20T02:11:15;1.60;;;1.02;;
75634;SDS011;64227;48.724;9.104;2023-07-20T02:13:41;2.83;;;1.50;;
75634;SDS011;64227;48.724;9.104;2023-07-20T02:16:06;1.65;;;1.23;;
75634;SDS011;64227;48.724;9.104;2023-07-20T02:18:31;3.63;;;1.33;;
75634;SDS011;64227;48.724;9.104;2023-07-20T02:20:57;1.52;;;1.13;;
75634;SDS011;64227;48.724;9.104;2023-07-20T02:23:22;2.30;;;1.50;;
75634;SDS011;64227;48.724;9.104;2023-07-20T02:25:47;1.30;;;1.10;;
75634;SDS011;64227;48.724;9.104;2023-07-20T02:28:13;2.33;;;1.33;;
75634;SDS011;64227;48.724;9.104;2023-07-20T02:30:40;3.70;;;1.25;;
75634;SDS011;64227;48.724;9.104;2023-07-20T02:33:05;1.23;;;1.10;;
75634;SDS011;64227;48.724;9.104;2023-07-20T02:35:31;1.58;;;1.15;;
75634;SDS011;64227;48.724;9.104;2023-07-20T02:37:57;2.20;;;1.30;;
75634;SDS011;64227;48.724;9.104;2023-07-20T02:40:22;2.92;;;1.35;;
75634;SDS011;64227;48.724;9.104;2023-07-20T02:42:47;3.97;;;1.45;;
75634;SDS011;64227;48.724;9.104;2023-07-20T02:45:13;3.38;;;1.38;;
75634;SDS011;64227;48.724;9.104;2023-07-20T02:47:38;2.60;;;1.10;;
75634;SDS011;64227;48.724;9.104;2023-07-20T02:50:06;1.58;;;1.20;;
75634;SDS011;64227;48.724;9.104;2023-07-20T02:52:32;1.77;;;1.45;;
75634;SDS011;64227;48.724;9.104;2023-07-20T02:54:58;3.28;;;1.40;;
75634;SDS011;64227;48.724;9.104;2023-07-20T02:57:23;2.15;;;1.23;;
75634;SDS011;64227;48.724;9.104;2023-07-20T02:59:48;1.70;;;1.30;;
75634;SDS011;64227;48.724;9.104;2023-07-20T03:02:14;3.65;;;1.40;;
75634;SDS011;64227;48.724;9.104;2023-07-20T03:04:39;3.15;;;1.30;;
75634;SDS011;64227;48.724;9.104;2023-07-20T03:07:04;1.58;;;1.25;;
75634;SDS011;64227;48.724;9.104;2023-07-20T03:09:30;3.25;;;1.42;;
75634;SDS011;64227;48.724;9.104;2023-07-20T03:11:55;2.80;;;1.20;;
75634;SDS011;64227;48.724;9.104;2023-07-20T03:14:21;1.15;;;1.05;;
75634;SDS011;64227;48.724;9.104;2023-07-20T03:16:46;1.40;;;1.02;;
75634;SDS011;64227;48.724;9.104;2023-07-20T03:19:11;3.08;;;1.65;;
75634;SDS011;64227;48.724;9.104;2023-07-20T03:21:37;2.90;;;1.10;;
75634;SDS011;64227;48.724;9.104;2023-07-20T03:24:05;1.23;;;1.13;;
75634;SDS011;64227;48.724;9.104;2023-07-20T03:26:31;1.50;;;1.10;;
75634;SDS011;64227;48.724;9.104;2023-07-20T03:28:56;2.28;;;0.98;;
75634;SDS011;64227;48.724;9.104;2023-07-20T03:31:22;4.70;;;1.50;;
75634;SDS011;64227;48.724;9.104;2023-07-20T03:33:47;2.38;;;1.50;;
75634;SDS011;64227;48.724;9.104;2023-07-20T03:36:12;1.95;;;1.50;;
75634;SDS011;64227;48.724;9.104;2023-07-20T03:38:38;2.42;;;1.15;;
75634;SDS011;64227;48.724;9.104;2023-07-20T03:41:03;2.72;;;1.42;;
75634;SDS011;64227;48.724;9.104;2023-07-20T03:43:28;2.00;;;1.15;;
75634;SDS011;64227;48.724;9.104;2023-07-20T03:45:53;2.20;;;1.20;;
75634;SDS011;64227;48.724;9.104;2023-07-20T03:48:20;1.08;;;0.98;;
75634;SDS011;64227;48.724;9.104;2023-07-20T03:50:47;1.52;;;1.20;;
75634;SDS011;64227;48.724;9.104;2023-07-20T03:53:13;1.55;;;0.90;;
75634;SDS011;64227;48.724;9.104;2023-07-20T03:55:40;3.65;;;1.65;;
75634;SDS011;64227;48.724;9.104;2023-07-20T03:58:06;2.15;;;1.23;;
75634;SDS011;64227;48.724;9.104;2023-07-20T04:00:32;2.22;;;1.23;;
75634;SDS011;64227;48.724;9.104;2023-07-20T04:02:57;1.30;;;1.20;;
75634;SDS011;64227;48.724;9.104;2023-07-20T04:05:24;2.20;;;1.70;;
75634;SDS011;64227;48.724;9.104;2023-07-20T04:07:49;1.63;;;0.95;;
75634;SDS011;64227;48.724;9.104;2023-07-20T04:10:14;2.05;;;1.55;;
75634;SDS011;64227;48.724;9.104;2023-07-20T04:12:39;1.90;;;1.55;;
75634;SDS011;64227;48.724;9.104;2023-07-20T04:15:05;3.40;;;1.53;;
75634;SDS011;64227;48.724;9.104;2023-07-20T04:17:31;1.88;;;1.20;;
75634;SDS011;64227;48.724;9.104;2023-07-20T04:19:56;1.60;;;1.08;;
75634;SDS011;64227;48.724;9.104;2023-07-20T04:22:21;1.43;;;1.17;;
75634;SDS011;64227;48.724;9.104;2023-07-20T04:24:47;4.00;;;1.70;;
75634;SDS011;64227;48.724;9.104;2023-07-20T04:27:12;1.83;;;1.10;;
75634;SDS011;64227;48.724;9.104;2023-07-20T04:29:38;2.92;;;1.25;;
75634;SDS011;64227;48.724;9.104;2023-07-20T04:32:03;2.22;;;1.15;;
75634;SDS011;64227;48.724;9.104;2023-07-20T04:34:29;1.58;;;1.27;;
75634;SDS011;64227;48.724;9.104;2023-07-20T04:36:54;1.80;;;1.40;;
75634;SDS011;64227;48.724;9.104;2023-07-20T04:39:19;2.45;;;1.38;;
75634;SDS011;64227;48.724;9.104;2023-07-20T04:41:44;1.55;;;1.00;;
75634;SDS011;64227;48.724;9.104;2023-07-20T04:44:10;1.83;;;1.30;;
75634;SDS011;64227;48.724;9.104;2023-07-20T04:46:35;2.10;;;1.15;;
75634;SDS011;64227;48.724;9.104;2023-07-20T04:49:00;2.78;;;1.50;;
75634;SDS011;64227;48.724;9.104;2023-07-20T04:51:26;3.50;;;1.45;;
75634;SDS011;64227;48.724;9.104;2023-07-20T04:53:52;2.55;;;1.60;;
75634;SDS011;64227;48.724;9.104;2023-07-20T04:56:17;1.77;;;1.10;;
75634;SDS011;64227;48.724;9.104;2023-07-20T04:58:42;2.13;;;1.50;;
75634;SDS011;64227;48.724;9.104;2023-07-20T05:01:08;3.75;;;1.40;;
75634;SDS011;64227;48.724;9.104;2023-07-20T05:03:33;2.05;;;1.40;;
75634;SDS011;64227;48.724;9.104;2023-07-20T05:05:58;7.35;;;1.42;;
75634;SDS011;64227;48.724;9.104;2023-07-20T05:08:24;3.65;;;1.30;;
75634;SDS011;64227;48.724;9.104;2023-07-20T05:10:49;2.75;;;1.33;;
75634;SDS011;64227;48.724;9.104;2023-07-20T05:13:16;2.53;;;1.50;;
75634;SDS011;64227;48.724;9.104;2023-07-20T05:15:41;2.92;;;1.42;;
75634;SDS011;64227;48.724;9.104;2023-07-20T05:18:06;2.70;;;1.70;;
75634;SDS011;64227;48.724;9.104;2023-07-20T05:20:33;1.65;;;1.40;;
75634;SDS011;64227;48.724;9.104;2023-07-20T05:22:59;3.17;;;1.40;;
75634;SDS011;64227;48.724;9.104;2023-07-20T05:25:25;1.83;;;1.10;;
75634;SDS011;64227;48.724;9.104;2023-07-20T05:27:51;2.78;;;1.48;;
75634;SDS011;64227;48.724;9.104;2023-07-20T05:30:17;3.38;;;1.30;;
75634;SDS011;64227;48.724;9.104;2023-07-20T05:32:43;4.43;;;1.30;;
75634;SDS011;64227;48.724;9.104;2023-07-20T05:35:10;1.45;;;1.17;;
75634;SDS011;64227;48.724;9.104;2023-07-20T05:37:36;2.10;;;1.33;;
75634;SDS011;64227;48.724;9.104;2023-07-20T05:40:02;4.22;;;1.67;;
75634;SDS011;64227;48.724;9.104;2023-07-20T05:42:27;4.07;;;1.83;;
75634;SDS011;64227;48.724;9.104;2023-07-20T05:44:53;2.17;;;1.50;;
75634;SDS011;64227;48.724;9.104;2023-07-20T05:47:19;3.53;;;1.40;;
75634;SDS011;64227;48.724;9.104;2023-07-20T05:49:44;1.70;;;1.40;;
75634;SDS011;64227;48.724;9.104;2023-07-20T05:52:09;1.52;;;1.15;;
75634;SDS011;64227;48.724;9.104;2023-07-20T05:54:35;3.05;;;1.45;;
75634;SDS011;64227;48.724;9.104;2023-07-20T05:57:00;3.13;;;1.70;;
75634;SDS011;64227;48.724;9.104;2023-07-20T05:59:26;6.57;;;1.50;;
75634;SDS011;64227;48.724;9.104;2023-07-20T06:01:54;3.22;;;1.40;;
75634;SDS011;64227;48.724;9.104;2023-07-20T06:04:19;3.05;;;1.85;;
75634;SDS011;64227;48.724;9.104;2023-07-20T06:06:45;2.22;;;1.42;;
75634;SDS011;64227;48.724;9.104;2023-07-20T06:09:10;4.18;;;1.80;;
75634;SDS011;64227;48.724;9.104;2023-07-20T06:11:37;3.97;;;1.83;;
75634;SDS011;64227;48.724;9.104;2023-07-20T06:14:05;1.67;;;1.20;;
75634;SDS011;64227;48.724;9.104;2023-07-20T06:16:31;2.13;;;1.50;;
75634;SDS011;64227;48.724;9.104;2023-07-20T06:18:56;3.10;;;1.85;;
75634;SDS011;64227;48.724;9.104;2023-07-20T06:21:22;3.33;;;1.30;;
75634;SDS011;64227;48.724;9.104;2023-07-20T06:23:47;3.85;;;1.63;;
75634;SDS011;64227;48.724;9.104;2023-07-20T06:26:12;3.55;;;1.50;;
75634;SDS011;64227;48.724;9.104;2023-07-20T06:28:38;2.38;;;1.30;;
75634;SDS011;64227;48.724;9.104;2023-07-20T06:31:03;2.35;;;1.40;;
75634;SDS011;64227;48.724;9.104;2023-07-20T06:33:29;2.08;;;1.48;;
75634;SDS011;64227;48.724;9.104;2023-07-20T06:35:54;3.92;;;1.70;;
75634;SDS011;64227;48.724;9.104;2023-07-20T06:38:21;4.47;;;1.70;;
75634;SDS011;64227;48.724;9.104;2023-07-20T06:40:48;1.83;;;1.33;;
75634;SDS011;64227;48.724;9.104;2023-07-20T06:43:13;4.88;;;1.58;;
75634;SDS011;64227;48.724;9.104;2023-07-20T06:45:38;1.42;;;1.10;;
75634;SDS011;64227;48.724;9.104;2023-07-20T06:48:04;1.98;;;1.00;;
75634;SDS011;64227;48.724;9.104;2023-07-20T06:50:29;2.97;;;1.30;;
75634;SDS011;64227;48.724;9.104;2023-07-20T06:52:55;2.03;;;1.30;;
75634;SDS011;64227;48.724;9.104;2023-07-20T06:55:20;5.50;;;1.40;;
75634;SDS011;64227;48.724;9.104;2023-07-20T06:57:46;4.05;;;1.33;;
75634;SDS011;64227;48.724;9.104;2023-07-20T07:00:11;1.05;;;0.90;;
75634;SDS011;64227;48.724;9.104;2023-07-20T07:02:37;3.13;;;1.23;;
75634;SDS011;64227;48.724;9.104;2023-07-20T07:05:03;1.42;;;0.93;;
75634;SDS011;64227;48.724;9.104;2023-07-20T07:07:28;3.90;;;1.50;;
75634;SDS011;64227;48.724;9.104;2023-07-20T07:09:54;4.53;;;1.50;;
75634;SDS011;64227;48.724;9.104;2023-07-20T07:12:19;3.22;;;1.35;;
75634;SDS011;64227;48.724;9.104;2023-07-20T07:14:44;2.80;;;1.25;;
75634;SDS011;64227;48.724;9.104;2023-07-20T07:17:10;3.35;;;1.33;;
75634;SDS011;64227;48.724;9.104;2023-07-20T07:19:35;1.60;;;1.27;;
75634;SDS011;64227;48.724;9.104;2023-07-20T07:22:01;3.78;;;1.30;;
75634;SDS011;64227;48.724;9.104;2023-07-20T07:24:26;3.45;;;1.40;;
75634;SDS011;64227;48.724;9.104;2023-07-20T07:26:52;3.40;;;1.95;;
75634;SDS011;64227;48.724;9.104;2023-07-20T07:29:18;3.65;;;1.25;;
75634;SDS011;64227;48.724;9.104;2023-07-20T07:31:43;2.75;;;1.48;;
75634;SDS011;64227;48.724;9.104;2023-07-20T07:34:08;3.08;;;1.42;;
75634;SDS011;64227;48.724;9.104;2023-07-20T07:36:34;3.88;;;1.23;;
75634;SDS011;64227;48.724;9.104;2023-07-20T07:38:59;2.85;;;1.30;;
75634;SDS011;64227;48.724;9.104;2023-07-20T07:41:25;1.63;;;1.38;;
75634;SDS011;64227;48.724;9.104;2023-07-20T07:43:50;3.85;;;1.60;;
75634;SDS011;64227;48.724;9.104;2023-07-20T07:46:16;3.85;;;1.52;;
75634;SDS011;64227;48.724;9.104;2023-07-20T07:48:42;3.17;;;1.77;;
75634;SDS011;64227;48.724;9.104;2023-07-20T07:51:07;3.08;;;1.73;;
75634;SDS011;64227;48.724;9.104;2023-07-20T07:53:32;3.35;;;1.70;;
75634;SDS011;64227;48.724;9.104;2023-07-20T07:55:58;2.38;;;1.20;;
75634;SDS011;64227;48.724;9.104;2023-07-20T07:58:23;4.60;;;1.67;;
75634;SDS011;64227;48.724;9.104;2023-07-20T08:00:49;2.53;;;1.55;;
75634;SDS011;64227;48.724;9.104;2023-07-20T08:03:14;2.13;;;1.65;;
75634;SDS011;64227;48.724;9.104;2023-07-20T08:05:39;3.05;;;1.60;;
75634;SDS011;64227;48.724;9.104;2023-07-20T08:08:04;3.50;;;1.55;;
75634;SDS011;64227;48.724;9.104;2023-07-20T08:10:30;5.10;;;1.40;;
75634;SDS011;64227;48.724;9.104;2023-07-20T08:12:56;3.20;;;1.85;;
75634;SDS011;64227;48.724;9.104;2023-07-20T08:15:21;1.95;;;1.35;;
75634;SDS011;64227;48.724;9.104;2023-07-20T08:17:47;3.10;;;1.30;;
75634;SDS011;64227;48.724;9.104;2023-07-20T08:20:13;2.22;;;1.00;;
75634;SDS011;64227;48.724;9.104;2023-07-20T08:22:39;4.07;;;1.30;;
75634;SDS011;64227;48.724;9.104;2023-07-20T08:25:05;2.42;;;1.38;;
75634;SDS011;64227;48.724;9.104;2023-07-20T08:27:31;2.63;;;1.17;;
75634;SDS011;64227;48.724;9.104;2023-07-20T08:29:56;2.35;;;1.58;;
75634;SDS011;64227;48.724;9.104;2023-07-20T08:32:21;1.83;;;1.20;;
75634;SDS011;64227;48.724;9.104;2023-07-20T08:34:47;4.53;;;1.35;;
75634;SDS011;64227;48.724;9.104;2023-07-20T08:37:12;4.38;;;1.40;;
75634;SDS011;64227;48.724;9.104;2023-07-20T08:39:37;2.15;;;1.38;;
75634;SDS011;64227;48.724;9.104;2023-07-20T08:42:03;1.73;;;1.30;;
75634;SDS011;64227;48.724;9.104;2023-07-20T08:44:32;1.20;;;1.10;;
75634;SDS011;64227;48.724;9.104;2023-07-20T08:46:57;2.45;;;1.40;;
75634;SDS011;64227;48.724;9.104;2023-07-20T08:49:24;1.65;;;1.15;;
75634;SDS011;64227;48.724;9.104;2023-07-20T08:51:49;1.85;;;1.10;;
75634;SDS011;64227;48.724;9.104;2023-07-20T08:54:16;2.35;;;1.40;;
75634;SDS011;64227;48.724;9.104;2023-07-20T08:56:42;4.40;;;1.67;;
75634;SDS011;64227;48.724;9.104;2023-07-20T08:59:08;2.85;;;1.38;;
75634;SDS011;64227;48.724;9.104;2023-07-20T09:01:34;4.65;;;1.33;;
75634;SDS011;64227;48.724;9.104;2023-07-20T09:04:00;1.95;;;1.30;;
75634;SDS011;64227;48.724;9.104;2023-07-20T09:06:26;2.38;;;1.30;;
75634;SDS011;64227;48.724;9.104;2023-07-20T09:08:51;1.95;;;1.48;;
75634;SDS011;64227;48.724;9.104;2023-07-20T09:11:16;1.55;;;1.30;;
75634;SDS011;64227;48.724;9.104;2023-07-20T09:13:42;1.83;;;1.25;;
75634;SDS011;64227;48.724;9.104;2023-07-20T09:16:08;2.72;;;1.13;;
75634;SDS011;64227;48.724;9.104;2023-07-20T09:18:34;1.75;;;1.13;;
75634;SDS011;64227;48.724;9.104;2023-07-20T09:21:03;2.00;;;1.35;;
75634;SDS011;64227;48.724;9.104;2023-07-20T09:23:30;2.00;;;1.27;;
75634;SDS011;64227;48.724;9.104;2023-07-20T09:25:57;2.20;;;1.20;;
75634;SDS011;64227;48.724;9.104;2023-07-20T09:28:22;2.78;;;1.23;;
75634;SDS011;64227;48.724;9.104;2023-07-20T09:30:47;4.15;;;1.20;;
75634;SDS011;64227;48.724;9.104;2023-07-20T09:33:21;2.08;;;1.10;;
75634;SDS011;64227;48.724;9.104;2023-07-20T09:35:46;2.38;;;1.27;;
75634;SDS011;64227;48.724;9.104;2023-07-20T09:38:12;1.55;;;1.17;;
75634;SDS011;64227;48.724;9.104;2023-07-20T09:40:39;2.22;;;1.35;;
75634;SDS011;64227;48.724;9.104;2023-07-20T09:43:07;4.22;;;1.15;;
75634;SDS011;64227;48.724;9.104;2023-07-20T09:45:34;4.13;;;0.95;;
75634;SDS011;64227;48.724;9.104;2023-07-20T09:48:04;2.13;;;0.93;;
75634;SDS011;64227;48.724;9.104;2023-07-20T09:50:33;1.95;;;1.08;;
75634;SDS011;64227;48.724;9.104;2023-07-20T09:52:58;1.25;;;1.10;;
75634;SDS011;64227;48.724;9.104;2023-07-20T09:55:26;2.40;;;1.05;;
75634;SDS011;64227;48.724;9.104;2023-07-20T09:57:52;1.33;;;1.00;;
75634;SDS011;64227;48.724;9.104;2023-07-20T10:00:18;1.23;;;1.10;;
75634;SDS011;64227;48.724;9.104;2023-07-20T10:02:44;1.85;;;1.08;;
75634;SDS011;64227;48.724;9.104;2023-07-20T10:05:14;1.88;;;1.17;;
75634;SDS011;64227;48.724;9.104;2023-07-20T10:07:43;2.13;;;1.00;;
75634;SDS011;64227;48.724;9.104;2023-07-20T10:10:10;1.88;;;1.00;;
75634;SDS011;64227;48.724;9.104;2023-07-20T10:12:36;1.90;;;1.20;;
75634;SDS011;64227;48.724;9.104;2023-07-20T10:17:40;1.92;;;0.90;;
75634;SDS011;64227;48.724;9.104;2023-07-20T10:20:14;3.08;;;0.90;;
75634;SDS011;64227;48.724;9.104;2023-07-20T10:22:41;2.20;;;1.02;;
75634;SDS011;64227;48.724;9.104;2023-07-20T10:25:08;3.10;;;1.00;;
75634;SDS011;64227;48.724;9.104;2023-07-20T10:27:34;1.77;;;1.25;;
75634;SDS011;64227;48.724;9.104;2023-07-20T10:29:59;1.58;;;1.05;;
75634;SDS011;64227;48.724;9.104;2023-07-20T10:32:26;2.25;;;0.90;;
75634;SDS011;64227;48.724;9.104;2023-07-20T10:34:52;1.73;;;1.00;;
75634;SDS011;64227;48.724;9.104;2023-07-20T10:37:45;1.52;;;0.98;;
75634;SDS011;64227;48.724;9.104;2023-07-20T10:42:49;3.42;;;1.13;;
75634;SDS011;64227;48.724;9.104;2023-07-20T10:45:14;4.00;;;1.00;;
75634;SDS011;64227;48.724;9.104;2023-07-20T10:47:46;1.92;;;1.00;;
75634;SDS011;64227;48.724;9.104;2023-07-20T10:50:12;1.00;;;0.90;;
75634;SDS011;64227;48.724;9.104;2023-07-20T10:52:40;1.10;;;0.80;;
75634;SDS011;64227;48.724;9.104;2023-07-20T10:55:18;1.77;;;0.80;;
75634;SDS011;64227;48.724;9.104;2023-07-20T10:58:05;2.25;;;1.58;;
75634;SDS011;64227;48.724;9.104;2023-07-20T11:00:32;1.13;;;1.02;;
75634;SDS011;64227;48.724;9.104;2023-07-20T11:02:58;1.13;;;0.90;;
75634;SDS011;64227;48.724;9.104;2023-07-20T11:05:34;1.60;;;0.88;;
75634;SDS011;64227;48.724;9.104;2023-07-20T11:08:05;1.80;;;1.17;;
75634;SDS011;64227;48.724;9.104;2023-07-20T11:10:37;2.00;;;0.82;;
75634;SDS011;64227;48.724;9.104;2023-07-20T11:13:19;0.95;;;0.80;;
75634;SDS011;64227;48.724;9.104;2023-07-20T11:18:21;1.55;;;0.80;;
75634;SDS011;64227;48.724;9.104;2023-07-20T11:20:50;1.35;;;0.88;;
75634;SDS011;64227;48.724;9.104;2023-07-20T11:23:15;1.27;;;0.90;;
75634;SDS011;64227;48.724;9.104;2023-07-20T11:25:41;1.85;;;1.10;;
75634;SDS011;64227;48.724;9.104;2023-07-20T11:28:07;1.02;;;0.80;;
75634;SDS011;64227;48.724;9.104;2023-07-20T11:30:34;1.33;;;0.88;;
75634;SDS011;64227;48.724;9.104;2023-07-20T11:32:59;2.25;;;0.80;;
75634;SDS011;64227;48.724;9.104;2023-07-20T11:35:25;1.67;;;1.00;;
75634;SDS011;64227;48.724;9.104;2023-07-20T11:37:50;0.90;;;0.90;;
75634;SDS011;64227;48.724;9.104;2023-07-20T11:40:15;0.95;;;0.73;;
75634;SDS011;64227;48.724;9.104;2023-07-20T11:42:41;1.70;;;1.10;;
75634;SDS011;64227;48.724;9.104;2023-07-20T11:45:06;1.95;;;0.90;;
75634;SDS011;64227;48.724;9.104;2023-07-20T11:47:32;1.35;;;0.90;;
75634;SDS011;64227;48.724;9.104;2023-07-20T11:49:58;1.00;;;0.90;;
75634;SDS011;64227;48.724;9.104;2023-07-20T11:52:28;1.23;;;0.80;;
75634;SDS011;64227;48.724;9.104;2023-07-20T11:54:53;1.52;;;0.93;;
75634;SDS011;64227;48.724;9.104;2023-07-20T11:57:19;1.85;;;0.90;;
75634;SDS011;64227;48.724;9.104;2023-07-20T11:59:54;0.95;;;0.77;;
75634;SDS011;64227;48.724;9.104;2023-07-20T12:02:23;1.05;;;0.90;;
75634;SDS011;64227;48.724;9.104;2023-07-20T12:04:50;1.63;;;0.93;;
75634;SDS011;64227;48.724;9.104;2023-07-20T12:07:16;0.88;;;0.82;;
75634;SDS011;64227;48.724;9.104;2023-07-20T12:09:41;1.50;;;0.77;;
75634;SDS011;64227;48.724;9.104;2023-07-20T12:12:10;0.85;;;0.85;;
75634;SDS011;64227;48.724;9.104;2023-07-20T12:14:38;0.70;;;0.70;;
75634;SDS011;64227;48.724;9.104;2023-07-20T12:17:03;1.50;;;0.82;;
75634;SDS011;64227;48.724;9.104;2023-07-20T12:19:29;1.15;;;0.70;;
75634;SDS011;64227;48.724;9.104;2023-07-20T12:21:57;2.00;;;0.90;;
75634;SDS011;64227;48.724;9.104;2023-07-20T12:24:24;2.78;;;0.90;;
75634;SDS011;64227;48.724;9.104;2023-07-20T12:26:55;1.38;;;0.90;;
75634;SDS011;64227;48.724;9.104;2023-07-20T12:29:22;1.40;;;0.98;;
75634;SDS011;64227;48.724;9.104;2023-07-20T12:31:48;2.22;;;0.90;;
75634;SDS011;64227;48.724;9.104;2023-07-20T12:34:13;1.35;;;0.70;;
75634;SDS011;64227;48.724;9.104;2023-07-20T12:36:38;2.50;;;0.80;;
75634;SDS011;64227;48.724;9.104;2023-07-20T12:39:04;2.90;;;1.02;;
75634;SDS011;64227;48.724;9.104;2023-07-20T12:41:30;1.65;;;1.00;;
75634;SDS011;64227;48.724;9.104;2023-07-20T12:43:55;1.27;;;1.08;;
75634;SDS011;64227;48.724;9.104;2023-07-20T12:46:22;1.83;;;1.00;;
75634;SDS011;64227;48.724;9.104;2023-07-20T12:48:48;1.50;;;1.00;;
75634;SDS011;64227;48.724;9.104;2023-07-20T12:51:14;1.77;;;0.88;;
75634;SDS011;64227;48.724;9.104;2023-07-20T12:53:39;0.93;;;0.82;;
75634;SDS011;64227;48.724;9.104;2023-07-20T12:56:05;3.67;;;1.20;;
75634;SDS011;64227;48.724;9.104;2023-07-20T12:58:30;3.85;;;1.05;;
75634;SDS011;64227;48.724;9.104;2023-07-20T13:10:33;1.08;;;0.90;;
75634;SDS011;64227;48.724;9.104;2023-07-20T13:16:43;1.10;;;1.00;;
75634;SDS011;64227;48.724;9.104;2023-07-20T13:19:24;1.13;;;0.75;;
75634;SDS011;64227;48.724;9.104;2023-07-20T13:21:58;1.20;;;0.70;;
75634;SDS011;64227;48.724;9.104;2023-07-20T13:25:21;1.70;;;0.90;;
75634;SDS011;64227;48.724;9.104;2023-07-20T13:27:50;0.80;;;0.80;;
75634;SDS011;64227;48.724;9.104;2023-07-20T13:30:15;2.33;;;1.10;;
75634;SDS011;64227;48.724;9.104;2023-07-20T13:32:44;1.85;;;0.82;;
75634;SDS011;64227;48.724;9.104;2023-07-20T13:35:12;1.77;;;1.00;;
75634;SDS011;64227;48.724;9.104;2023-07-20T13:37:39;1.35;;;1.00;;
75634;SDS011;64227;48.724;9.104;2023-07-20T13:40:16;1.05;;;0.90;;
75634;SDS011;64227;48.724;9.104;2023-07-20T13:43:38;1.77;;;0.90;;
75634;SDS011;64227;48.724;9.104;2023-07-20T13:46:04;0.75;;;0.75;;
75634;SDS011;64227;48.724;9.104;2023-07-20T13:48:29;0.98;;;0.80;;
75634;SDS011;64227;48.724;9.104;2023-07-20T13:51:11;0.75;;;0.73;;
75634;SDS011;64227;48.724;9.104;2023-07-20T13:53:36;1.67;;;0.60;;
75634;SDS011;64227;48.724;9.104;2023-07-20T13:56:01;1.50;;;1.02;;
75634;SDS011;64227;48.724;9.104;2023-07-20T13:58:29;1.48;;;0.90;;
75634;SDS011;64227;48.724;9.104;2023-07-20T14:00:54;0.98;;;0.77;;
75634;SDS011;64227;48.724;9.104;2023-07-20T14:03:20;1.45;;;0.90;;
75634;SDS011;64227;48.724;9.104;2023-07-20T14:05:48;0.77;;;0.77;;
75634;SDS011;64227;48.724;9.104;2023-07-20T14:08:34;1.33;;;0.90;;
75634;SDS011;64227;48.724;9.104;2023-07-20T14:10:59;1.13;;;0.90;;
75634;SDS011;64227;48.724;9.104;2023-07-20T14:13:24;1.00;;;0.80;;
75634;SDS011;64227;48.724;9.104;2023-07-20T14:15:50;1.10;;;0.90;;
75634;SDS011;64227;48.724;9.104;2023-07-20T14:18:21;1.10;;;0.88;;
75634;SDS011;64227;48.724;9.104;2023-07-20T14:21:15;0.95;;;0.85;;
75634;SDS011;64227;48.724;9.104;2023-07-20T14:23:47;1.58;;;0.90;;
75634;SDS011;64227;48.724;9.104;2023-07-20T14:26:14;1.92;;;0.80;;
75634;SDS011;64227;48.724;9.104;2023-07-20T14:28:39;1.20;;;1.10;;
75634;SDS011;64227;48.724;9.104;2023-07-20T14:31:05;2.55;;;1.10;;
75634;SDS011;64227;48.724;9.104;2023-07-20T14:33:31;0.80;;;0.80;;
75634;SDS011;64227;48.724;9.104;2023-07-20T14:35:56;2.08;;;0.90;;
75634;SDS011;64227;48.724;9.104;2023-07-20T14:38:21;1.20;;;0.77;;
75634;SDS011;64227;48.724;9.104;2023-07-20T14:40:47;1.30;;;0.90;;
75634;SDS011;64227;48.724;9.104;2023-07-20T14:43:12;2.88;;;0.90;;
75634;SDS011;64227;48.724;9.104;2023-07-20T14:45:39;1.10;;;0.80;;
75634;SDS011;64227;48.724;9.104;2023-07-20T14:48:05;0.73;;;0.70;;
75634;SDS011;64227;48.724;9.104;2023-07-20T14:50:32;1.02;;;0.70;;
75634;SDS011;64227;48.724;9.104;2023-07-20T14:52:59;1.95;;;1.00;;
75634;SDS011;64227;48.724;9.104;2023-07-20T14:55:25;2.33;;;0.93;;
75634;SDS011;64227;48.724;9.104;2023-07-20T14:57:50;2.97;;;1.13;;
75634;SDS011;64227;48.724;9.104;2023-07-20T15:00:15;1.95;;;0.90;;
75634;SDS011;64227;48.724;9.104;2023-07-20T15:02:41;1.60;;;1.00;;
75634;SDS011;64227;48.724;9.104;2023-07-20T15:05:07;1.55;;;0.90;;
75634;SDS011;64227;48.724;9.104;2023-07-20T15:07:33;2.25;;;1.00;;
75634;SDS011;64227;48.724;9.104;2023-07-20T15:09:59;2.95;;;0.90;;
75634;SDS011;64227;48.724;9.104;2023-07-20T15:12:25;1.83;;;0.70;;
75634;SDS011;64227;48.724;9.104;2023-07-20T15:15:06;2.55;;;1.02;;
75634;SDS011;64227;48.724;9.104;2023-07-20T15:17:33;1.05;;;0.82;;
75634;SDS011;64227;48.724;9.104;2023-07-20T15:19:59;2.90;;;0.88;;
75634;SDS011;64227;48.724;9.104;2023-07-20T15:22:24;4.25;;;0.90;;
75634;SDS011;64227;48.724;9.104;2023-07-20T15:24:50;0.90;;;0.73;;